Time;durP1;ratioP1;P1;durP2;ratioP2;P2;SDS_P1;SDS_P2;PMS_P1;PMS_P2;Temp;Humidity;BMP_temperature;BMP_pressure;BME280_temperature;BME280_humidity;BME280_pressure;Samples;Min_cycle;Max_cycle;Signal;HPM_P1;HPM_P2
2023/05/24 00:00:03;;;;;;;;;;;16.00;68.50;;;15.24;nan;96014.38;5051942;28;19921;-82
2023/05/24 00:02:33;;;;;;;;;;;16.10;68.40;;;15.24;nan;96010.78;5051363;28;19920;-82
2023/05/24 00:05:01;;;;;;;;;;;16.00;68.30;;;15.25;nan;96009.66;5068223;28;20217;-82
2023/05/24 00:07:31;;;;;;;;;;;16.10;68.30;;;15.24;nan;96011.59;5050805;28;19927;-82
2023/05/24 00:09:59;;;;;;;;;;;16.00;68.10;;;15.24;nan;96008.84;5051711;28;19921;-82
2023/05/24 00:12:27;;;;;;;;;;;16.10;68.10;;;15.24;nan;96013.53;5052448;28;19927;-81
2023/05/24 00:14:55;;;;;;;;;;;16.00;67.90;;;15.24;nan;96017.13;5045419;28;19921;-81
2023/05/24 00:17:23;;;;;;;;;;;16.00;67.80;;;15.23;nan;96007.22;5048467;28;19921;-81
2023/05/24 00:19:52;;;;;;;;;;;16.10;67.90;;;15.23;nan;96012.72;5014360;28;19936;-81
2023/05/24 00:22:20;;;;;;;;;;;16.10;67.90;;;15.23;nan;96022.94;5031084;28;19921;-81
2023/05/24 00:24:49;;;;;;;;;;;16.00;67.80;;;15.22;nan;96013.84;5014883;28;19929;-82
2023/05/24 00:27:17;;;;;;;;;;;16.00;67.80;;;15.21;nan;96012.22;5032052;28;19921;-81
2023/05/24 00:29:45;;;;;;;;;;;16.00;67.60;;;15.20;nan;96013.34;5039350;28;19920;-81
2023/05/24 00:32:13;;;;;;;;;;;16.00;67.60;;;15.19;nan;96012.53;5065416;28;19920;-81
2023/05/24 00:34:41;;;;;;;;;;;16.00;67.60;;;15.18;nan;96010.06;5034533;28;19927;-81
2023/05/24 00:37:09;;;;;;;;;;;16.00;67.70;;;15.18;nan;96007.31;5051754;28;19921;-81
2023/05/24 00:39:37;;;;;;;;;;;16.00;67.70;;;15.18;nan;96004.53;5026902;28;19927;-81
2023/05/24 00:42:07;;;;;;;;;;;16.00;67.70;;;15.17;nan;96002.91;5048611;28;19921;-81
2023/05/24 00:44:35;;;;;;;;;;;16.00;67.70;;;15.18;nan;96004.53;5051718;28;19927;-81
2023/05/24 00:47:03;;;;;;;;;;;16.00;67.70;;;15.18;nan;96007.31;5050750;28;20139;-81
2023/05/24 00:49:31;;;;;;;;;;;16.00;67.50;;;15.16;nan;96006.81;5050148;28;19928;-81
2023/05/24 00:51:59;;;;;;;;;;;16.00;67.40;;;15.15;nan;96005.19;5067304;28;20209;-81
2023/05/24 00:54:28;;;;;;;;;;;16.00;67.40;;;15.14;nan;96009.06;5034290;28;19921;-81
2023/05/24 00:56:56;;;;;;;;;;;16.00;67.30;;;15.12;nan;96003.03;5050516;28;19920;-81
2023/05/24 00:59:28;;;;;;;;;;;15.90;67.50;;;15.11;nan;96004.13;5050228;28;19921;-81
2023/05/24 01:01:56;;;;;;;;;;;15.90;67.50;;;15.12;nan;96005.78;5050348;28;19927;-81
2023/05/24 01:04:24;;;;;;;;;;;16.00;67.60;;;15.12;nan;96008.53;5066948;28;19921;-82
2023/05/24 01:07:00;;;;;;;;;;;16.00;67.60;;;15.11;nan;96006.91;5051569;28;19921;-82
2023/05/24 01:09:32;;;;;;;;;;;16.00;67.60;;;15.09;nan;96009.97;5049899;28;19920;-82
2023/05/24 01:12:07;;;;;;;;;;;15.90;67.50;;;15.10;nan;96003.34;5050432;28;19927;-82
2023/05/24 01:14:41;;;;;;;;;;;15.90;67.50;;;15.10;nan;95999.75;5050599;28;19925;-82
2023/05/24 01:17:13;;;;;;;;;;;15.90;67.50;;;15.09;nan;95998.94;5050246;28;19920;-81
2023/05/24 01:19:52;;;;;;;;;;;15.90;67.60;;;15.09;nan;96000.88;5032627;28;20212;-81
2023/05/24 01:22:41;;;;;;;;;;;15.90;67.50;;;15.09;nan;96006.38;5033603;28;19928;-82
2023/05/24 01:25:13;;;;;;;;;;;15.90;67.30;;;15.06;nan;95996.78;5064649;28;20216;-81
2023/05/24 01:27:42;;;;;;;;;;;15.90;67.30;;;15.06;nan;96007.81;5050212;28;19920;-81
2023/05/24 01:30:11;;;;;;;;;;;15.90;67.20;;;15.04;nan;96005.34;5033031;28;20120;-82
2023/05/24 01:32:39;;;;;;;;;;;15.90;67.20;;;15.02;nan;96004.84;5051180;28;19927;-81
2023/05/24 01:35:08;;;;;;;;;;;15.90;67.30;;;15.02;nan;96009.53;5050375;28;19921;-82
2023/05/24 01:37:37;;;;;;;;;;;15.90;67.30;;;15.01;nan;95994.13;5033431;28;19927;-82
2023/05/24 01:40:06;;;;;;;;;;;15.90;67.20;;;15.01;nan;95994.13;5033070;28;19924;-82
2023/05/24 01:42:36;;;;;;;;;;;15.90;67.20;;;14.99;nan;95997.19;5050955;28;19920;-82
2023/05/24 01:45:08;;;;;;;;;;;15.80;67.10;;;14.98;nan;96001.06;5050012;28;19983;-81
2023/05/24 01:47:44;;;;;;;;;;;15.90;67.30;;;14.97;nan;96002.19;5049768;28;19921;-81
2023/05/24 01:50:16;;;;;;;;;;;15.80;67.10;;;14.96;nan;95997.78;5050498;28;19928;-82
2023/05/24 01:52:44;;;;;;;;;;;15.80;67.00;;;14.95;nan;96001.66;5033267;28;19927;-81
2023/05/24 01:55:13;;;;;;;;;;;15.80;67.00;;;14.95;nan;96001.66;5033144;28;19921;-81
2023/05/24 01:57:42;;;;;;;;;;;15.80;67.00;;;14.94;nan;96000.03;5049879;28;19927;-81
2023/05/24 02:00:13;;;;;;;;;;;15.80;67.10;;;14.94;nan;96002.78;5066032;28;19921;-81
2023/05/24 02:02:42;;;;;;;;;;;15.80;67.20;;;14.93;nan;95998.38;5032981;28;20124;-81
2023/05/24 02:05:10;;;;;;;;;;;15.80;67.20;;;14.93;nan;95997.59;5050869;28;19956;-81
2023/05/24 02:07:38;;;;;;;;;;;15.80;67.20;;;14.93;nan;95998.38;5050692;28;19921;-82
2023/05/24 02:10:07;;;;;;;;;;;15.80;67.20;;;14.92;nan;95991.25;5032782;28;19921;-82
2023/05/24 02:12:35;;;;;;;;;;;15.80;67.20;;;14.92;nan;95999.50;5033034;28;19921;-81
2023/05/24 02:15:05;;;;;;;;;;;15.80;67.30;;;14.92;nan;96001.47;5049512;28;19931;-81
2023/05/24 02:17:36;;;;;;;;;;;15.80;67.30;;;14.92;nan;95995.94;5033238;28;19921;-82
2023/05/24 02:20:05;;;;;;;;;;;15.80;67.20;;;14.91;nan;95997.88;5048989;28;19925;-82
2023/05/24 02:22:34;;;;;;;;;;;15.80;67.30;;;14.91;nan;95992.34;5049682;28;19921;-82
2023/05/24 02:25:02;;;;;;;;;;;15.80;67.40;;;14.92;nan;95996.75;5032745;28;20113;-81
2023/05/24 02:27:30;;;;;;;;;;;15.80;67.50;;;14.92;nan;96001.47;5049565;28;19927;-81
2023/05/24 02:29:58;;;;;;;;;;;15.80;67.30;;;14.92;nan;96006.97;5067031;28;19920;-81
2023/05/24 02:32:26;;;;;;;;;;;15.80;67.00;;;14.89;nan;96000.13;5036374;28;19921;-81
2023/05/24 02:34:57;;;;;;;;;;;15.80;66.90;;;14.88;nan;96001.25;5052714;28;19921;-82
2023/05/24 02:37:25;;;;;;;;;;;15.70;66.90;;;14.86;nan;96007.06;5036137;28;19928;-81
2023/05/24 02:39:53;;;;;;;;;;;15.70;66.90;;;14.85;nan;96007.38;5052066;28;19921;-82
2023/05/24 02:42:21;;;;;;;;;;;15.70;66.90;;;14.84;nan;96000.22;5052693;28;19927;-82
2023/05/24 02:44:51;;;;;;;;;;;15.70;66.80;;;14.83;nan;96006.84;5053305;28;20112;-82
2023/05/24 02:47:19;;;;;;;;;;;15.70;66.80;;;14.82;nan;96008.81;5051880;28;19921;-82
2023/05/24 02:49:47;;;;;;;;;;;15.70;66.80;;;14.83;nan;96015.13;5051939;28;19921;-81
2023/05/24 02:52:20;;;;;;;;;;;15.70;66.90;;;14.83;nan;96004.09;5053832;28;19928;-82
2023/05/24 02:54:48;;;;;;;;;;;15.70;66.80;;;14.83;nan;96009.59;5035989;28;19928;-82
2023/05/24 02:57:18;;;;;;;;;;;15.70;66.80;;;14.83;nan;96012.34;5052455;28;19920;-81
2023/05/24 02:59:46;;;;;;;;;;;15.70;66.80;;;14.83;nan;96017.88;5068408;28;19927;-81
2023/05/24 03:02:14;;;;;;;;;;;15.70;66.60;;;14.82;nan;96025.34;5052371;28;19920;-81
2023/05/24 03:04:42;;;;;;;;;;;15.70;66.80;;;14.82;nan;96019.81;5052143;28;20220;-81
2023/05/24 03:07:13;;;;;;;;;;;15.70;66.80;;;14.82;nan;96010.72;5052509;28;19921;-81
2023/05/24 03:09:42;;;;;;;;;;;15.70;66.80;;;14.81;nan;96014.59;5051673;28;19927;-82
2023/05/24 03:12:11;;;;;;;;;;;15.70;66.50;;;14.80;nan;96013.78;5052482;28;19934;-81
2023/05/24 03:14:39;;;;;;;;;;;15.60;66.50;;;14.80;nan;96012.97;5035553;28;19921;-82
2023/05/24 03:17:07;;;;;;;;;;;15.70;66.70;;;14.79;nan;96011.31;5035806;28;19928;-81
2023/05/24 03:19:36;;;;;;;;;;;15.70;66.80;;;14.80;nan;96015.72;5051387;28;20353;-81
2023/05/24 03:22:04;;;;;;;;;;;15.70;66.80;;;14.80;nan;96007.44;5035736;28;20102;-81
2023/05/24 03:24:33;;;;;;;;;;;15.70;66.70;;;14.80;nan;96012.97;5068517;28;20121;-82
2023/05/24 03:27:02;;;;;;;;;;;15.60;66.70;;;14.80;nan;96018.47;5052199;28;19921;-81
2023/05/24 03:29:31;;;;;;;;;;;15.60;66.70;;;14.80;nan;96022.06;5052377;28;20097;-81
2023/05/24 03:31:59;;;;;;;;;;;15.60;66.60;;;14.79;nan;96014.06;5051973;28;19920;-82
2023/05/24 03:34:27;;;;;;;;;;;15.60;66.50;;;14.80;nan;96026.75;5035242;28;19921;-81
2023/05/24 03:36:55;;;;;;;;;;;15.70;66.70;;;14.80;nan;96012.97;5053127;28;19921;-81
2023/05/24 03:39:23;;;;;;;;;;;15.70;66.70;;;14.80;nan;96016.53;5052362;28;20121;-81
2023/05/24 03:42:13;;;;;;;;;;;15.70;66.70;;;14.82;nan;96013.47;5051000;28;20106;-81
2023/05/24 03:44:41;;;;;;;;;;;15.70;66.80;;;14.81;nan;96011.84;5051681;28;19921;-81
2023/05/24 03:47:09;;;;;;;;;;;15.70;66.90;;;14.83;nan;96020.63;5051852;28;20235;-81
2023/05/24 03:49:38;;;;;;;;;;;15.70;67.00;;;14.83;nan;96024.22;5034332;28;19920;-81
2023/05/24 03:52:06;;;;;;;;;;;15.70;67.00;;;14.84;nan;96014.00;5035204;28;19925;-81
2023/05/24 03:54:34;;;;;;;;;;;15.70;67.20;;;14.86;nan;96017.28;5034874;28;19921;-81
2023/05/24 03:57:02;;;;;;;;;;;15.70;67.10;;;14.85;nan;96018.38;5052761;28;19927;-81
2023/05/24 03:59:31;;;;;;;;;;;15.70;66.90;;;14.83;nan;96020.63;5050761;28;19920;-81
2023/05/24 04:01:59;;;;;;;;;;;15.70;67.30;;;14.81;nan;96022.88;5034928;28;19920;-81
2023/05/24 04:04:27;;;;;;;;;;;15.60;67.20;;;14.79;nan;96025.94;5051492;28;19927;-81
2023/05/24 04:06:56;;;;;;;;;;;15.60;67.40;;;14.78;nan;96026.25;5051569;28;19921;-81
2023/05/24 04:09:25;;;;;;;;;;;15.60;67.50;;;14.77;nan;96021.84;5050727;28;19931;-81
2023/05/24 04:11:53;;;;;;;;;;;15.60;68.00;;;14.79;nan;96036.13;5034907;28;19921;-81
2023/05/24 04:14:21;;;;;;;;;;;15.60;68.20;;;14.80;nan;96026.75;5051183;28;19925;-81
2023/05/24 04:16:52;;;;;;;;;;;15.60;68.10;;;14.83;nan;96035.25;5051271;28;20205;-81
2023/05/24 04:19:20;;;;;;;;;;;15.60;68.30;;;14.83;nan;96026.13;5033774;28;19921;-80
2023/05/24 04:21:49;;;;;;;;;;;15.60;68.20;;;14.86;nan;96031.06;5051061;28;19928;-80
2023/05/24 04:24:17;;;;;;;;;;;15.60;68.60;;;14.89;nan;96030.44;5052183;28;19921;-81
2023/05/24 04:26:46;;;;;;;;;;;15.70;68.90;;;14.92;nan;96032.59;5051266;28;19921;-80
2023/05/24 04:29:14;;;;;;;;;;;15.70;69.00;;;14.97;nan;96037.22;5050353;28;19920;-80
2023/05/24 04:31:43;;;;;;;;;;;15.80;68.90;;;15.02;nan;96045.38;5034404;28;20113;-81
2023/05/24 04:34:13;;;;;;;;;;;15.80;68.80;;;15.07;nan;96042.53;5067750;28;19921;-81
2023/05/24 04:36:41;;;;;;;;;;;15.90;69.00;;;15.13;nan;96051.53;5050809;28;19920;-81
2023/05/24 04:39:11;;;;;;;;;;;15.90;68.70;;;15.16;nan;96050.94;5050384;28;20116;-81
2023/05/24 04:41:39;;;;;;;;;;;15.90;68.80;;;15.21;nan;96047.25;5050832;28;19927;-81
2023/05/24 04:44:07;;;;;;;;;;;16.00;68.50;;;15.24;nan;96052.97;5034176;28;19924;-81
2023/05/24 04:46:35;;;;;;;;;;;16.00;68.50;;;15.25;nan;96054.63;5067350;28;19921;-81
2023/05/24 04:49:04;;;;;;;;;;;16.00;68.70;;;15.28;nan;96059.53;5066948;28;19921;-81
2023/05/24 04:51:37;;;;;;;;;;;16.00;68.90;;;15.31;nan;96053.38;5033723;28;19920;-81
2023/05/24 04:54:07;;;;;;;;;;;16.00;68.90;;;15.32;nan;96043.19;5049669;28;20239;-81
2023/05/24 04:56:37;;;;;;;;;;;16.10;68.80;;;15.37;nan;96056.06;5050657;28;19931;-81
2023/05/24 04:59:05;;;;;;;;;;;16.10;68.80;;;15.40;nan;96055.44;5066799;28;19921;-81
2023/05/24 05:01:33;;;;;;;;;;;16.10;68.80;;;15.41;nan;96051.56;5050464;28;19929;-81
2023/05/24 05:04:03;;;;;;;;;;;16.20;69.10;;;15.46;nan;96051.44;5051811;28;19921;-81
2023/05/24 05:06:33;;;;;;;;;;;16.20;69.00;;;15.48;nan;96057.47;5050252;28;19927;-81
2023/05/24 05:09:03;;;;;;;;;;;16.20;69.10;;;15.52;nan;96053.00;5033059;28;19921;-81
2023/05/24 05:11:49;;;;;;;;;;;16.30;69.40;;;15.56;nan;96059.53;5066875;28;19920;-81
2023/05/24 05:14:18;;;;;;;;;;;16.30;69.50;;;15.59;nan;96058.09;5049609;28;19925;-82
2023/05/24 05:16:46;;;;;;;;;;;16.30;69.50;;;15.60;nan;96060.56;5050342;28;19921;-81
2023/05/24 05:19:15;;;;;;;;;;;16.30;69.30;;;15.63;nan;96059.94;5050766;28;19921;-82
2023/05/24 05:21:42;;;;;;;;;;;16.40;69.50;;;15.65;nan;96057.69;5050048;28;19967;-82
2023/05/24 05:24:12;;;;;;;;;;;16.40;69.20;;;15.68;nan;96060.97;5051568;28;19921;-82
2023/05/24 05:26:40;;;;;;;;;;;16.50;69.10;;;15.73;nan;96058.09;5051168;28;19921;-82
2023/05/24 05:29:08;;;;;;;;;;;16.50;68.90;;;15.76;nan;96057.47;5049526;28;19920;-82
2023/05/24 05:31:36;;;;;;;;;;;16.50;68.70;;;15.78;nan;96067.09;5051120;28;19921;-82
2023/05/24 05:34:08;;;;;;;;;;;16.60;68.50;;;15.82;nan;96070.03;5033489;28;20018;-82
2023/05/24 05:36:39;;;;;;;;;;;16.60;68.40;;;15.87;nan;96077.47;5051276;28;20120;-82
2023/05/24 05:39:08;;;;;;;;;;;16.60;68.20;;;15.91;nan;96070.16;5049615;28;19935;-82
2023/05/24 05:41:38;;;;;;;;;;;16.70;68.20;;;15.95;nan;96073.97;5051021;28;20220;-81
2023/05/24 05:44:06;;;;;;;;;;;16.80;68.00;;;15.99;nan;96075.00;5050157;28;20120;-82
2023/05/24 05:46:34;;;;;;;;;;;16.80;67.90;;;16.04;nan;96082.34;5050750;28;19920;-83
2023/05/24 05:49:02;;;;;;;;;;;16.80;67.80;;;16.08;nan;96086.09;5049360;28;19920;-83
2023/05/24 05:51:30;;;;;;;;;;;16.90;67.80;;;16.13;nan;96077.72;5066501;28;20132;-83
2023/05/24 05:53:58;;;;;;;;;;;16.90;67.70;;;16.19;nan;96084.78;5066700;28;20023;-83
2023/05/24 05:56:27;;;;;;;;;;;17.00;67.60;;;16.24;nan;96089.38;5049692;28;19920;-83
2023/05/24 05:58:56;;;;;;;;;;;17.00;67.40;;;16.30;nan;96081.78;5050549;28;19921;-83
2023/05/24 06:01:25;;;;;;;;;;;17.10;67.40;;;16.35;nan;96095.47;5033147;28;19921;-83
2023/05/24 06:03:53;;;;;;;;;;;17.10;67.30;;;16.39;nan;96089.00;5033477;28;19927;-83
2023/05/24 06:06:20;;;;;;;;;;;17.20;67.20;;;16.48;nan;96091.03;5054234;28;19921;-82
2023/05/24 06:08:48;;;;;;;;;;;17.20;67.10;;;16.51;nan;96094.00;5052824;28;19927;-82
2023/05/24 06:11:17;;;;;;;;;;;17.30;67.10;;;16.56;nan;96091.13;5036464;28;20116;-82
2023/05/24 06:13:45;;;;;;;;;;;17.30;66.90;;;16.61;nan;96092.09;5053334;28;19921;-82
2023/05/24 06:16:14;;;;;;;;;;;17.30;66.80;;;16.65;nan;96093.94;5036480;28;19925;-82
2023/05/24 06:18:42;;;;;;;;;;;17.40;66.70;;;16.66;nan;96084.50;5036154;28;20002;-82
2023/05/24 06:21:10;;;;;;;;;;;17.40;66.60;;;16.69;nan;96088.63;5054197;28;20260;-82
2023/05/24 06:23:38;;;;;;;;;;;17.40;66.60;;;16.71;nan;96094.66;5069816;28;19921;-82
2023/05/24 06:26:07;;;;;;;;;;;17.40;66.50;;;16.72;nan;96091.56;5053935;28;20205;-82
2023/05/24 06:28:35;;;;;;;;;;;17.50;66.50;;;16.75;nan;96086.56;5053641;28;19947;-82
2023/05/24 06:31:03;;;;;;;;;;;17.50;66.60;;;16.77;nan;96085.09;5036295;28;20114;-82
2023/05/24 06:33:33;;;;;;;;;;;17.50;66.50;;;16.79;nan;96084.78;5036360;28;19927;-83
2023/05/24 06:36:01;;;;;;;;;;;17.50;66.50;;;16.80;nan;96081.72;5053892;28;19920;-82
2023/05/24 06:38:31;;;;;;;;;;;17.50;66.50;;;16.83;nan;96088.56;5052209;28;19927;-82
2023/05/24 06:40:59;;;;;;;;;;;17.50;66.50;;;16.85;nan;96081.56;5036058;28;20136;-82
2023/05/24 06:43:27;;;;;;;;;;;17.60;66.40;;;16.89;nan;96076.25;5053981;28;19921;-82
2023/05/24 06:45:55;;;;;;;;;;;17.60;66.30;;;16.92;nan;96077.56;5052550;28;20276;-83
2023/05/24 06:48:23;;;;;;;;;;;17.60;66.20;;;16.95;nan;96071.44;5052254;28;19921;-83
2023/05/24 06:50:53;;;;;;;;;;;17.70;66.30;;;16.99;nan;96075.19;5052533;28;19921;-83
2023/05/24 06:53:21;;;;;;;;;;;17.70;66.10;;;17.02;nan;96063.50;5053759;28;19921;-82
2023/05/24 06:55:49;;;;;;;;;;;17.70;66.00;;;17.03;nan;96059.59;5053710;28;20124;-83
2023/05/24 06:58:17;;;;;;;;;;;17.70;65.90;;;17.06;nan;96058.97;5035527;28;19921;-83
2023/05/24 07:00:45;;;;;;;;;;;17.70;65.80;;;17.09;nan;96063.06;5068889;28;19920;-83
2023/05/24 07:03:13;;;;;;;;;;;17.80;65.60;;;17.14;nan;96063.72;5052336;28;19921;-83
2023/05/24 07:05:41;;;;;;;;;;;17.80;65.40;;;17.16;nan;96067.00;5053577;28;19921;-83
2023/05/24 07:08:10;;;;;;;;;;;17.80;65.40;;;17.18;nan;96067.50;5052255;28;19921;-83
2023/05/24 07:10:38;;;;;;;;;;;17.80;65.20;;;17.20;nan;96066.38;5051858;28;19921;-83
2023/05/24 07:13:08;;;;;;;;;;;17.90;65.30;;;17.23;nan;96071.28;5053150;28;19921;-83
2023/05/24 07:15:36;;;;;;;;;;;17.90;65.20;;;17.23;nan;96063.78;5035078;28;19920;-83
2023/05/24 07:18:04;;;;;;;;;;;17.90;65.10;;;17.26;nan;96067.88;5053108;28;19921;-83
2023/05/24 07:20:32;;;;;;;;;;;18.00;65.10;;;17.28;nan;96074.72;5052660;28;19920;-83
2023/05/24 07:23:00;;;;;;;;;;;17.90;65.00;;;17.30;nan;96068.88;5051778;28;19921;-83
2023/05/24 07:25:30;;;;;;;;;;;18.00;64.90;;;17.32;nan;96072.13;5053521;28;19928;-83
2023/05/24 07:27:58;;;;;;;;;;;18.00;64.80;;;17.33;nan;96068.25;5035401;28;20234;-83
2023/05/24 07:30:26;;;;;;;;;;;18.00;64.80;;;17.34;nan;96061.56;5051378;28;19935;-83
2023/05/24 07:32:57;;;;;;;;;;;18.00;64.80;;;17.36;nan;96062.09;5035478;28;20094;-82
2023/05/24 07:35:29;;;;;;;;;;;18.10;64.90;;;17.38;nan;96068.09;5048411;28;20377;-83
2023/05/24 07:37:57;;;;;;;;;;;18.10;64.80;;;17.40;nan;96068.59;5051830;28;19921;-83
2023/05/24 07:40:25;;;;;;;;;;;18.10;64.90;;;17.41;nan;96059.16;5052421;28;19921;-83
2023/05/24 07:42:55;;;;;;;;;;;18.10;65.00;;;17.42;nan;96060.00;5051694;28;19927;-83
2023/05/24 07:45:23;;;;;;;;;;;18.20;64.90;;;17.43;nan;96065.19;5051602;28;19936;-83
2023/05/24 07:47:51;;;;;;;;;;;18.10;64.90;;;17.43;nan;96065.19;5035194;28;19920;-83
2023/05/24 07:50:19;;;;;;;;;;;18.10;64.90;;;17.44;nan;96061.28;5051172;28;19921;-83
2023/05/24 07:52:47;;;;;;;;;;;18.20;65.00;;;17.43;nan;96062.44;5051536;28;19920;-83
2023/05/24 07:55:15;;;;;;;;;;;18.20;65.00;;;17.44;nan;96064.06;5051781;28;19927;-83
2023/05/24 07:57:43;;;;;;;;;;;18.20;65.20;;;17.44;nan;96072.38;5032611;28;19921;-83
2023/05/24 08:00:14;;;;;;;;;;;18.20;65.40;;;17.45;nan;96064.88;5032166;28;19928;-83
2023/05/24 08:02:42;;;;;;;;;;;18.20;65.50;;;17.45;nan;96067.63;5052010;28;19921;-83
2023/05/24 08:05:11;;;;;;;;;;;18.20;65.50;;;17.45;nan;96065.69;5052597;28;19927;-83
2023/05/24 08:07:40;;;;;;;;;;;18.20;65.50;;;17.45;nan;96065.69;5051295;28;19927;-83
2023/05/24 08:10:11;;;;;;;;;;;18.20;65.70;;;17.45;nan;96065.69;5067453;28;19928;-84
2023/05/24 08:12:39;;;;;;;;;;;18.20;65.80;;;17.46;nan;96064.56;5034850;28;19927;-84
2023/05/24 08:15:08;;;;;;;;;;;18.20;65.90;;;17.46;nan;96059.03;5052369;28;19943;-83
2023/05/24 08:17:38;;;;;;;;;;;18.20;65.90;;;17.45;nan;96068.47;5051222;28;19927;-84
2023/05/24 08:20:08;;;;;;;;;;;18.20;66.00;;;17.46;nan;96061.78;5050583;28;19921;-84
2023/05/24 08:22:36;;;;;;;;;;;18.20;65.90;;;17.47;nan;96062.59;5050866;28;19928;-83
2023/05/24 08:25:05;;;;;;;;;;;18.20;66.30;;;17.47;nan;96062.59;5051217;28;19921;-83
2023/05/24 08:27:33;;;;;;;;;;;18.20;66.50;;;17.46;nan;96055.44;5050821;28;19927;-83
2023/05/24 08:30:03;;;;;;;;;;;18.20;66.10;;;17.47;nan;96063.44;5051636;28;19927;-84
2023/05/24 08:32:31;;;;;;;;;;;18.20;66.40;;;17.48;nan;96056.75;5051132;28;19921;-84
2023/05/24 08:35:00;;;;;;;;;;;18.20;66.50;;;17.48;nan;96062.31;5051242;28;19927;-83
2023/05/24 08:37:30;;;;;;;;;;;18.20;66.40;;;17.48;nan;96059.53;5050806;28;19920;-84
2023/05/24 08:39:58;;;;;;;;;;;18.30;66.40;;;17.48;nan;96054.00;5050535;28;19979;-84
2023/05/24 08:42:26;;;;;;;;;;;18.20;66.20;;;17.48;nan;96054.00;5050855;28;19928;-84
2023/05/24 08:44:58;;;;;;;;;;;18.20;65.90;;;17.49;nan;96052.84;5050768;28;19921;-84
2023/05/24 08:47:27;;;;;;;;;;;18.30;66.00;;;17.49;nan;96049.25;5052010;28;19927;-84
2023/05/24 08:49:54;;;;;;;;;;;18.30;65.90;;;17.48;nan;96045.69;5051136;28;19927;-83
2023/05/24 08:52:24;;;;;;;;;;;18.30;65.70;;;17.47;nan;96035.75;5051775;28;19927;-84
2023/05/24 08:54:52;;;;;;;;;;;18.30;65.70;;;17.46;nan;96039.66;5050702;28;19920;-84
2023/05/24 08:57:20;;;;;;;;;;;18.20;65.50;;;17.43;nan;96043.06;5051747;28;20040;-83
2023/05/24 08:59:48;;;;;;;;;;;18.20;65.50;;;17.43;nan;96037.53;5033379;28;19921;-83
2023/05/24 09:02:16;;;;;;;;;;;18.20;65.60;;;17.43;nan;96043.06;5051801;28;19920;-83
2023/05/24 09:04:44;;;;;;;;;;;18.20;65.60;;;17.41;nan;96041.75;5050579;28;19921;-83
2023/05/24 09:07:12;;;;;;;;;;;18.20;65.60;;;17.38;nan;96037.66;5033670;28;20209;-83
2023/05/24 09:09:44;;;;;;;;;;;18.20;65.60;;;17.37;nan;96041.56;5066632;28;20220;-84
2023/05/24 09:12:13;;;;;;;;;;;18.20;65.80;;;17.37;nan;96037.97;5051642;28;19921;-83
2023/05/24 09:14:41;;;;;;;;;;;18.20;65.80;;;17.35;nan;96037.47;5050139;28;19927;-83
2023/05/24 09:17:09;;;;;;;;;;;18.20;65.80;;;17.34;nan;96039.44;5050354;28;19921;-83
2023/05/24 09:19:37;;;;;;;;;;;18.10;66.10;;;17.32;nan;96036.16;5050874;28;19927;-84
2023/05/24 09:22:05;;;;;;;;;;;18.10;66.00;;;17.32;nan;96025.91;5050309;28;19920;-83
2023/05/24 09:24:42;;;;;;;;;;;18.10;66.40;;;17.33;nan;96035.03;5033642;28;19927;-83
2023/05/24 09:27:10;;;;;;;;;;;18.10;66.30;;;17.32;nan;96028.69;5067088;28;19921;-83
2023/05/24 09:29:38;;;;;;;;;;;18.10;66.40;;;17.32;nan;96027.88;5049450;28;19921;-83
2023/05/24 09:32:07;;;;;;;;;;;18.10;66.20;;;17.30;nan;96025.41;5066919;28;20216;-84
2023/05/24 09:34:38;;;;;;;;;;;18.10;66.10;;;17.29;nan;96028.50;5051027;28;19925;-83
2023/05/24 09:37:07;;;;;;;;;;;18.10;66.30;;;17.26;nan;96024.44;5050194;28;20127;-83
2023/05/24 09:39:35;;;;;;;;;;;18.10;66.80;;;17.28;nan;96032.41;5048892;28;20213;-84
2023/05/24 09:42:05;;;;;;;;;;;18.10;66.50;;;17.27;nan;96025.22;5050168;28;19920;-83
2023/05/24 09:44:33;;;;;;;;;;;18.10;66.80;;;17.29;nan;96022.97;5083354;28;19927;-84
2023/05/24 09:47:02;;;;;;;;;;;18.10;67.00;;;17.28;nan;96026.88;5033394;28;19927;-83
2023/05/24 09:49:30;;;;;;;;;;;18.10;67.10;;;17.30;nan;96021.84;5049331;28;19927;-84
2023/05/24 09:51:58;;;;;;;;;;;18.10;67.00;;;17.29;nan;96012.72;5033043;28;19920;-84
2023/05/24 09:54:26;;;;;;;;;;;18.10;66.90;;;17.31;nan;96015.16;5050818;28;19921;-84
2023/05/24 09:56:55;;;;;;;;;;;18.10;66.80;;;17.32;nan;96011.28;5051149;28;19942;-84
2023/05/24 09:59:24;;;;;;;;;;;18.10;66.70;;;17.34;nan;96020.06;5049169;28;19921;-83
2023/05/24 10:01:53;;;;;;;;;;;18.10;66.50;;;17.35;nan;96013.41;5049734;28;20209;-84
2023/05/24 10:04:22;;;;;;;;;;;18.10;66.50;;;17.36;nan;96014.22;5065969;28;19921;-83
2023/05/24 10:06:50;;;;;;;;;;;18.20;66.40;;;17.37;nan;96021.38;5066434;28;19920;-83
2023/05/24 10:09:18;;;;;;;;;;;18.20;66.40;;;17.36;nan;96020.56;5050175;28;19927;-84
2023/05/24 10:11:46;;;;;;;;;;;18.20;66.40;;;17.34;nan;96011.78;5049792;28;19927;-84
2023/05/24 10:14:14;;;;;;;;;;;18.20;66.40;;;17.34;nan;96014.53;5066182;28;19927;-84
2023/05/24 10:16:43;;;;;;;;;;;18.10;66.40;;;17.33;nan;96012.91;5049979;28;19943;-84
2023/05/24 10:19:12;;;;;;;;;;;18.10;66.40;;;17.32;nan;96008.50;5048829;28;19943;-83
2023/05/24 10:21:40;;;;;;;;;;;18.10;66.40;;;17.29;nan;96000.84;5050789;28;19928;-83
2023/05/24 10:24:08;;;;;;;;;;;18.10;66.60;;;17.28;nan;96005.56;5066112;28;20213;-84
2023/05/24 10:26:37;;;;;;;;;;;18.10;66.50;;;17.26;nan;96007.84;5050873;28;19921;-84
2023/05/24 10:29:07;;;;;;;;;;;18.10;66.60;;;17.25;nan;96005.38;5049725;28;20101;-83
2023/05/24 10:31:37;;;;;;;;;;;18.10;66.70;;;17.21;nan;96002.44;5049530;28;20125;-84
2023/05/24 10:34:06;;;;;;;;;;;18.00;66.60;;;17.21;nan;96005.19;5049343;28;20061;-83
2023/05/24 10:36:34;;;;;;;;;;;18.00;66.70;;;17.20;nan;95992.50;5049594;28;19927;-83
2023/05/24 10:39:03;;;;;;;;;;;18.00;66.80;;;17.20;nan;95991.69;5049745;28;19943;-84
2023/05/24 10:41:31;;;;;;;;;;;18.00;66.80;;;17.21;nan;95996.09;5065970;28;19927;-84
2023/05/24 10:43:59;;;;;;;;;;;18.00;66.90;;;17.18;nan;95992.81;5082402;28;19928;-84
2023/05/24 10:46:27;;;;;;;;;;;18.00;66.70;;;17.18;nan;95987.28;5049355;28;19921;-83
2023/05/24 10:49:01;;;;;;;;;;;18.00;66.70;;;17.19;nan;95993.63;5032066;28;19921;-84
2023/05/24 10:51:38;;;;;;;;;;;18.00;66.80;;;17.20;nan;95995.25;5051105;28;20240;-84
2023/05/24 10:54:16;;;;;;;;;;;18.00;66.70;;;17.18;nan;95995.59;5035999;28;20094;-83
2023/05/24 10:56:45;;;;;;;;;;;18.00;66.70;;;17.18;nan;95984.53;5053830;28;19921;-83
2023/05/24 10:59:36;;;;;;;;;;;18.00;66.80;;;17.16;nan;95986.78;5051841;28;19921;-84
2023/05/24 11:02:05;;;;;;;;;;;18.00;66.70;;;17.17;nan;95984.81;5052458;28;19921;-84
2023/05/24 11:04:34;;;;;;;;;;;18.00;65.90;;;17.20;nan;95980.63;5053437;28;19921;-84
2023/05/24 11:07:04;;;;;;;;;;;18.00;65.50;;;17.22;nan;95992.19;5052549;28;19921;-84
2023/05/24 11:09:32;;;;;;;;;;;18.00;65.70;;;17.24;nan;95987.13;5051515;28;20093;-84
2023/05/24 11:12:02;;;;;;;;;;;18.00;66.20;;;17.24;nan;95987.13;5035888;28;20120;-83
2023/05/24 11:14:31;;;;;;;;;;;18.00;66.30;;;17.21;nan;95985.03;5053212;28;19927;-84
2023/05/24 11:17:00;;;;;;;;;;;18.00;66.40;;;17.22;nan;95989.44;5052336;28;19935;-84
2023/05/24 11:19:34;;;;;;;;;;;18.00;66.50;;;17.21;nan;95979.50;5052886;28;19927;-83
2023/05/24 11:22:07;;;;;;;;;;;18.00;67.40;;;17.20;nan;95986.16;5035419;28;19921;-81
2023/05/24 11:24:35;;;;;;;;;;;18.00;66.70;;;17.19;nan;95982.56;5053329;28;19921;-82
2023/05/24 11:27:04;;;;;;;;;;;18.00;66.70;;;17.20;nan;95981.44;5052195;28;20205;-82
2023/05/24 11:29:32;;;;;;;;;;;18.00;66.60;;;17.21;nan;95982.25;5052526;28;19929;-81
2023/05/24 11:32:03;;;;;;;;;;;18.00;66.50;;;17.22;nan;95983.91;5051989;28;19921;-82
2023/05/24 11:34:31;;;;;;;;;;;18.00;66.20;;;17.23;nan;95980.00;5053207;28;19935;-82
2023/05/24 11:37:00;;;;;;;;;;;18.00;65.30;;;17.26;nan;95985.69;5051798;28;20116;-81
2023/05/24 11:39:33;;;;;;;;;;;18.10;64.90;;;17.28;nan;95979.84;5052354;28;19921;-82
2023/05/24 11:42:01;;;;;;;;;;;18.10;65.60;;;17.28;nan;95972.38;5052856;28;19927;-81